sensor_id;sensor_type;location;lat;lon;timestamp;P1;durP1;ratioP1;P2;durP2;ratioP2
17570;SDS011;8903;52.220;20.978;2023-07-31T00:00:57;3.87;;;2.97;;
17570;SDS011;8903;52.220;20.978;2023-07-31T00:03:24;7.47;;;6.33;;
17570;SDS011;8903;52.220;20.978;2023-07-31T00:05:51;3.67;;;3.33;;
17570;SDS011;8903;52.220;20.978;2023-07-31T00:08:18;4.70;;;2.00;;
17570;SDS011;8903;52.220;20.978;2023-07-31T00:10:45;2.50;;;2.10;;
17570;SDS011;8903;52.220;20.978;2023-07-31T00:13:12;2.43;;;2.27;;
17570;SDS011;8903;52.220;20.978;2023-07-31T00:15:40;3.40;;;2.70;;
17570;SDS011;8903;52.220;20.978;2023-07-31T00:18:07;2.17;;;2.03;;
17570;SDS011;8903;52.220;20.978;2023-07-31T00:20:34;2.43;;;2.23;;
17570;SDS011;8903;52.220;20.978;2023-07-31T00:23:01;2.30;;;2.10;;
17570;SDS011;8903;52.220;20.978;2023-07-31T00:25:28;2.37;;;2.17;;
17570;SDS011;8903;52.220;20.978;2023-07-31T00:27:55;2.50;;;2.30;;
17570;SDS011;8903;52.220;20.978;2023-07-31T00:30:22;4.30;;;2.70;;
17570;SDS011;8903;52.220;20.978;2023-07-31T00:32:51;2.10;;;1.90;;
17570;SDS011;8903;52.220;20.978;2023-07-31T00:35:18;2.70;;;2.50;;
17570;SDS011;8903;52.220;20.978;2023-07-31T00:37:45;2.53;;;2.17;;
17570;SDS011;8903;52.220;20.978;2023-07-31T00:40:12;6.27;;;2.07;;
17570;SDS011;8903;52.220;20.978;2023-07-31T00:42:39;2.43;;;2.23;;
17570;SDS011;8903;52.220;20.978;2023-07-31T00:45:07;2.73;;;2.53;;
17570;SDS011;8903;52.220;20.978;2023-07-31T00:47:34;2.40;;;2.20;;
17570;SDS011;8903;52.220;20.978;2023-07-31T00:50:03;11.57;;;10.43;;
17570;SDS011;8903;52.220;20.978;2023-07-31T00:52:32;6.50;;;3.10;;
17570;SDS011;8903;52.220;20.978;2023-07-31T00:54:59;3.03;;;2.67;;
17570;SDS011;8903;52.220;20.978;2023-07-31T00:57:26;4.03;;;2.50;;
17570;SDS011;8903;52.220;20.978;2023-07-31T00:59:53;2.70;;;2.50;;
17570;SDS011;8903;52.220;20.978;2023-07-31T01:02:21;3.37;;;3.07;;
17570;SDS011;8903;52.220;20.978;2023-07-31T01:04:47;2.40;;;2.20;;
17570;SDS011;8903;52.220;20.978;2023-07-31T01:07:20;3.37;;;3.07;;
17570;SDS011;8903;52.220;20.978;2023-07-31T01:10:02;3.77;;;2.47;;
17570;SDS011;8903;52.220;20.978;2023-07-31T01:12:34;2.50;;;2.30;;
17570;SDS011;8903;52.220;20.978;2023-07-31T01:15:04;2.93;;;2.73;;
17570;SDS011;8903;52.220;20.978;2023-07-31T01:17:33;3.47;;;2.83;;
17570;SDS011;8903;52.220;20.978;2023-07-31T01:20:01;4.50;;;2.43;;
17570;SDS011;8903;52.220;20.978;2023-07-31T01:25:33;2.63;;;2.43;;
17570;SDS011;8903;52.220;20.978;2023-07-31T01:28:23;2.60;;;2.40;;
17570;SDS011;8903;52.220;20.978;2023-07-31T01:30:57;3.57;;;2.50;;
17570;SDS011;8903;52.220;20.978;2023-07-31T01:33:26;2.67;;;2.40;;
17570;SDS011;8903;52.220;20.978;2023-07-31T01:35:54;2.97;;;2.77;;
17570;SDS011;8903;52.220;20.978;2023-07-31T01:38:23;3.47;;;3.00;;
17570;SDS011;8903;52.220;20.978;2023-07-31T01:40:51;3.07;;;2.67;;
17570;SDS011;8903;52.220;20.978;2023-07-31T01:43:20;2.83;;;2.63;;
17570;SDS011;8903;52.220;20.978;2023-07-31T01:45:47;3.73;;;2.80;;
17570;SDS011;8903;52.220;20.978;2023-07-31T01:48:14;3.70;;;2.83;;
17570;SDS011;8903;52.220;20.978;2023-07-31T01:50:41;2.90;;;2.60;;
17570;SDS011;8903;52.220;20.978;2023-07-31T01:53:07;3.20;;;3.00;;
17570;SDS011;8903;52.220;20.978;2023-07-31T01:55:34;3.00;;;2.80;;
17570;SDS011;8903;52.220;20.978;2023-07-31T01:58:01;3.73;;;3.47;;
17570;SDS011;8903;52.220;20.978;2023-07-31T02:00:30;5.97;;;3.50;;
17570;SDS011;8903;52.220;20.978;2023-07-31T02:02:57;4.33;;;3.83;;
17570;SDS011;8903;52.220;20.978;2023-07-31T02:05:25;5.40;;;3.80;;
17570;SDS011;8903;52.220;20.978;2023-07-31T02:07:52;5.03;;;4.00;;
17570;SDS011;8903;52.220;20.978;2023-07-31T02:10:19;3.20;;;3.00;;
17570;SDS011;8903;52.220;20.978;2023-07-31T02:12:46;3.53;;;3.27;;
17570;SDS011;8903;52.220;20.978;2023-07-31T02:15:13;3.20;;;2.93;;
17570;SDS011;8903;52.220;20.978;2023-07-31T02:17:48;3.03;;;2.83;;
17570;SDS011;8903;52.220;20.978;2023-07-31T02:20:15;3.80;;;3.47;;
17570;SDS011;8903;52.220;20.978;2023-07-31T02:22:42;4.17;;;3.80;;
17570;SDS011;8903;52.220;20.978;2023-07-31T02:25:09;6.00;;;3.67;;
17570;SDS011;8903;52.220;20.978;2023-07-31T02:27:36;4.10;;;3.43;;
17570;SDS011;8903;52.220;20.978;2023-07-31T02:30:03;3.80;;;3.50;;
17570;SDS011;8903;52.220;20.978;2023-07-31T02:32:30;5.00;;;3.90;;
17570;SDS011;8903;52.220;20.978;2023-07-31T02:34:59;5.00;;;4.53;;
17570;SDS011;8903;52.220;20.978;2023-07-31T02:37:26;4.30;;;3.87;;
17570;SDS011;8903;52.220;20.978;2023-07-31T02:39:54;4.60;;;4.20;;
17570;SDS011;8903;52.220;20.978;2023-07-31T02:42:21;4.40;;;4.10;;
17570;SDS011;8903;52.220;20.978;2023-07-31T02:44:48;5.03;;;3.73;;
17570;SDS011;8903;52.220;20.978;2023-07-31T02:47:20;5.33;;;3.50;;
17570;SDS011;8903;52.220;20.978;2023-07-31T02:49:47;4.20;;;3.73;;
17570;SDS011;8903;52.220;20.978;2023-07-31T02:52:17;5.07;;;4.57;;
17570;SDS011;8903;52.220;20.978;2023-07-31T02:54:44;4.00;;;3.70;;
17570;SDS011;8903;52.220;20.978;2023-07-31T02:57:12;3.57;;;3.27;;
17570;SDS011;8903;52.220;20.978;2023-07-31T02:59:39;7.17;;;3.73;;
17570;SDS011;8903;52.220;20.978;2023-07-31T03:02:06;6.07;;;3.60;;
17570;SDS011;8903;52.220;20.978;2023-07-31T03:04:33;4.10;;;3.60;;
17570;SDS011;8903;52.220;20.978;2023-07-31T03:07:00;5.20;;;3.87;;
17570;SDS011;8903;52.220;20.978;2023-07-31T03:09:29;5.50;;;4.30;;
17570;SDS011;8903;52.220;20.978;2023-07-31T03:11:56;4.57;;;4.17;;
17570;SDS011;8903;52.220;20.978;2023-07-31T03:14:23;4.23;;;3.83;;
17570;SDS011;8903;52.220;20.978;2023-07-31T03:16:51;7.70;;;4.37;;
17570;SDS011;8903;52.220;20.978;2023-07-31T03:19:18;5.07;;;3.73;;
17570;SDS011;8903;52.220;20.978;2023-07-31T03:21:45;4.80;;;3.60;;
17570;SDS011;8903;52.220;20.978;2023-07-31T03:24:12;4.67;;;4.00;;
17570;SDS011;8903;52.220;20.978;2023-07-31T03:26:41;4.87;;;3.70;;
17570;SDS011;8903;52.220;20.978;2023-07-31T03:29:08;6.90;;;4.17;;
17570;SDS011;8903;52.220;20.978;2023-07-31T03:31:35;4.97;;;4.20;;
17570;SDS011;8903;52.220;20.978;2023-07-31T03:34:02;4.60;;;4.17;;
17570;SDS011;8903;52.220;20.978;2023-07-31T03:36:29;4.27;;;3.93;;
17570;SDS011;8903;52.220;20.978;2023-07-31T03:38:57;5.00;;;3.97;;
17570;SDS011;8903;52.220;20.978;2023-07-31T03:41:26;3.70;;;3.00;;
17570;SDS011;8903;52.220;20.978;2023-07-31T03:43:56;3.70;;;3.40;;
17570;SDS011;8903;52.220;20.978;2023-07-31T03:46:23;10.97;;;4.00;;
17570;SDS011;8903;52.220;20.978;2023-07-31T03:48:51;5.93;;;4.00;;
17570;SDS011;8903;52.220;20.978;2023-07-31T03:51:18;5.27;;;4.73;;
17570;SDS011;8903;52.220;20.978;2023-07-31T03:53:45;4.47;;;4.07;;
17570;SDS011;8903;52.220;20.978;2023-07-31T03:56:12;4.60;;;3.90;;
17570;SDS011;8903;52.220;20.978;2023-07-31T03:58:39;3.93;;;3.63;;
17570;SDS011;8903;52.220;20.978;2023-07-31T04:01:08;4.93;;;4.43;;
17570;SDS011;8903;52.220;20.978;2023-07-31T04:03:35;4.50;;;3.73;;
17570;SDS011;8903;52.220;20.978;2023-07-31T04:06:02;3.63;;;3.43;;
17570;SDS011;8903;52.220;20.978;2023-07-31T04:08:29;6.10;;;3.43;;
17570;SDS011;8903;52.220;20.978;2023-07-31T04:10:56;4.03;;;3.63;;
17570;SDS011;8903;52.220;20.978;2023-07-31T04:13:23;5.20;;;4.00;;
17570;SDS011;8903;52.220;20.978;2023-07-31T04:15:52;3.80;;;3.50;;
17570;SDS011;8903;52.220;20.978;2023-07-31T04:18:21;4.30;;;3.23;;
17570;SDS011;8903;52.220;20.978;2023-07-31T04:20:51;5.47;;;4.30;;
17570;SDS011;8903;52.220;20.978;2023-07-31T04:23:18;4.77;;;4.30;;
17570;SDS011;8903;52.220;20.978;2023-07-31T04:25:45;6.03;;;3.67;;
17570;SDS011;8903;52.220;20.978;2023-07-31T04:28:12;4.90;;;3.90;;
17570;SDS011;8903;52.220;20.978;2023-07-31T04:30:39;4.47;;;3.50;;
17570;SDS011;8903;52.220;20.978;2023-07-31T04:33:06;7.90;;;4.20;;
17570;SDS011;8903;52.220;20.978;2023-07-31T04:35:35;5.13;;;3.50;;
17570;SDS011;8903;52.220;20.978;2023-07-31T04:38:01;7.63;;;4.00;;
17570;SDS011;8903;52.220;20.978;2023-07-31T04:40:28;4.00;;;3.40;;
17570;SDS011;8903;52.220;20.978;2023-07-31T04:42:55;5.77;;;3.93;;
17570;SDS011;8903;52.220;20.978;2023-07-31T04:45:22;4.37;;;3.43;;
17570;SDS011;8903;52.220;20.978;2023-07-31T04:47:49;6.20;;;3.40;;
17570;SDS011;8903;52.220;20.978;2023-07-31T04:50:16;4.90;;;4.40;;
17570;SDS011;8903;52.220;20.978;2023-07-31T04:52:45;4.60;;;3.80;;
17570;SDS011;8903;52.220;20.978;2023-07-31T04:55:12;4.57;;;3.73;;
17570;SDS011;8903;52.220;20.978;2023-07-31T04:57:39;6.07;;;3.77;;
17570;SDS011;8903;52.220;20.978;2023-07-31T05:00:06;8.73;;;3.77;;
17570;SDS011;8903;52.220;20.978;2023-07-31T05:02:34;5.83;;;4.00;;
17570;SDS011;8903;52.220;20.978;2023-07-31T05:05:01;4.20;;;3.80;;
17570;SDS011;8903;52.220;20.978;2023-07-31T05:07:28;4.37;;;3.90;;
17570;SDS011;8903;52.220;20.978;2023-07-31T05:09:56;6.00;;;4.87;;
17570;SDS011;8903;52.220;20.978;2023-07-31T05:12:24;6.90;;;4.33;;
17570;SDS011;8903;52.220;20.978;2023-07-31T05:14:50;7.00;;;4.17;;
17570;SDS011;8903;52.220;20.978;2023-07-31T05:17:17;6.20;;;4.00;;
17570;SDS011;8903;52.220;20.978;2023-07-31T05:19:45;5.47;;;4.30;;
17570;SDS011;8903;52.220;20.978;2023-07-31T05:22:11;5.83;;;3.17;;
17570;SDS011;8903;52.220;20.978;2023-07-31T05:24:38;5.10;;;3.67;;
17570;SDS011;8903;52.220;20.978;2023-07-31T05:27:07;5.20;;;3.30;;
17570;SDS011;8903;52.220;20.978;2023-07-31T05:29:34;4.50;;;3.77;;
17570;SDS011;8903;52.220;20.978;2023-07-31T05:32:01;5.07;;;4.17;;
17570;SDS011;8903;52.220;20.978;2023-07-31T05:34:29;7.27;;;3.40;;
17570;SDS011;8903;52.220;20.978;2023-07-31T05:36:58;5.03;;;3.40;;
17570;SDS011;8903;52.220;20.978;2023-07-31T05:39:25;4.40;;;3.97;;
17570;SDS011;8903;52.220;20.978;2023-07-31T05:41:52;3.93;;;3.60;;
17570;SDS011;8903;52.220;20.978;2023-07-31T05:44:22;5.23;;;3.23;;
17570;SDS011;8903;52.220;20.978;2023-07-31T05:46:49;7.30;;;3.40;;
17570;SDS011;8903;52.220;20.978;2023-07-31T05:49:16;6.53;;;4.33;;
17570;SDS011;8903;52.220;20.978;2023-07-31T05:51:43;5.63;;;3.93;;
17570;SDS011;8903;52.220;20.978;2023-07-31T05:54:10;3.93;;;2.73;;
17570;SDS011;8903;52.220;20.978;2023-07-31T05:56:37;5.23;;;4.73;;
17570;SDS011;8903;52.220;20.978;2023-07-31T05:59:04;3.70;;;3.43;;
17570;SDS011;8903;52.220;20.978;2023-07-31T06:01:33;4.80;;;3.90;;
17570;SDS011;8903;52.220;20.978;2023-07-31T06:04:00;5.47;;;3.97;;
17570;SDS011;8903;52.220;20.978;2023-07-31T06:06:28;3.83;;;3.43;;
17570;SDS011;8903;52.220;20.978;2023-07-31T06:08:55;3.83;;;3.50;;
17570;SDS011;8903;52.220;20.978;2023-07-31T06:11:22;6.20;;;3.53;;
17570;SDS011;8903;52.220;20.978;2023-07-31T06:13:49;5.20;;;3.80;;
17570;SDS011;8903;52.220;20.978;2023-07-31T06:16:17;5.23;;;3.63;;
17570;SDS011;8903;52.220;20.978;2023-07-31T06:18:47;7.60;;;4.10;;
17570;SDS011;8903;52.220;20.978;2023-07-31T06:21:15;7.37;;;3.77;;
17570;SDS011;8903;52.220;20.978;2023-07-31T06:23:42;11.33;;;4.03;;
17570;SDS011;8903;52.220;20.978;2023-07-31T06:26:09;5.97;;;4.53;;
17570;SDS011;8903;52.220;20.978;2023-07-31T06:28:36;5.90;;;4.00;;
17570;SDS011;8903;52.220;20.978;2023-07-31T06:31:03;4.63;;;4.13;;
17570;SDS011;8903;52.220;20.978;2023-07-31T06:33:30;5.60;;;4.53;;
17570;SDS011;8903;52.220;20.978;2023-07-31T06:35:58;3.93;;;3.63;;
17570;SDS011;8903;52.220;20.978;2023-07-31T06:38:28;5.67;;;5.10;;
17570;SDS011;8903;52.220;20.978;2023-07-31T06:40:55;9.20;;;5.43;;
17570;SDS011;8903;52.220;20.978;2023-07-31T06:43:22;4.70;;;4.30;;
17570;SDS011;8903;52.220;20.978;2023-07-31T06:45:49;6.20;;;4.77;;
17570;SDS011;8903;52.220;20.978;2023-07-31T06:48:16;5.47;;;4.80;;
17570;SDS011;8903;52.220;20.978;2023-07-31T06:50:43;4.27;;;3.80;;
17570;SDS011;8903;52.220;20.978;2023-07-31T06:53:12;9.83;;;4.90;;
17570;SDS011;8903;52.220;20.978;2023-07-31T06:55:42;5.13;;;4.50;;
17570;SDS011;8903;52.220;20.978;2023-07-31T06:58:09;6.17;;;4.30;;
17570;SDS011;8903;52.220;20.978;2023-07-31T07:00:36;6.77;;;4.67;;
17570;SDS011;8903;52.220;20.978;2023-07-31T07:03:03;5.00;;;3.80;;
17570;SDS011;8903;52.220;20.978;2023-07-31T07:05:30;6.30;;;4.50;;
17570;SDS011;8903;52.220;20.978;2023-07-31T07:07:57;21.23;;;5.80;;
17570;SDS011;8903;52.220;20.978;2023-07-31T07:13:11;6.30;;;4.17;;
17570;SDS011;8903;52.220;20.978;2023-07-31T07:15:38;4.23;;;3.83;;
17570;SDS011;8903;52.220;20.978;2023-07-31T07:18:05;8.43;;;4.47;;
17570;SDS011;8903;52.220;20.978;2023-07-31T07:20:40;6.43;;;4.10;;
17570;SDS011;8903;52.220;20.978;2023-07-31T07:23:14;6.33;;;4.23;;
17570;SDS011;8903;52.220;20.978;2023-07-31T07:25:45;6.63;;;4.40;;
17570;SDS011;8903;52.220;20.978;2023-07-31T07:28:15;4.73;;;4.30;;
17570;SDS011;8903;52.220;20.978;2023-07-31T07:30:42;4.03;;;3.57;;
17570;SDS011;8903;52.220;20.978;2023-07-31T07:33:09;5.40;;;3.53;;
17570;SDS011;8903;52.220;20.978;2023-07-31T07:35:37;6.77;;;4.33;;
17570;SDS011;8903;52.220;20.978;2023-07-31T07:38:04;6.33;;;4.40;;
17570;SDS011;8903;52.220;20.978;2023-07-31T07:40:39;12.10;;;3.70;;
17570;SDS011;8903;52.220;20.978;2023-07-31T07:43:08;5.80;;;4.10;;
17570;SDS011;8903;52.220;20.978;2023-07-31T07:45:35;6.20;;;3.80;;
17570;SDS011;8903;52.220;20.978;2023-07-31T07:48:05;8.67;;;4.27;;
17570;SDS011;8903;52.220;20.978;2023-07-31T07:50:32;7.43;;;4.40;;
17570;SDS011;8903;52.220;20.978;2023-07-31T07:52:59;4.77;;;4.03;;
17570;SDS011;8903;52.220;20.978;2023-07-31T07:55:26;6.90;;;3.70;;
17570;SDS011;8903;52.220;20.978;2023-07-31T07:57:53;3.70;;;3.30;;
17570;SDS011;8903;52.220;20.978;2023-07-31T08:00:24;4.97;;;3.23;;
17570;SDS011;8903;52.220;20.978;2023-07-31T08:02:52;5.30;;;4.30;;
17570;SDS011;8903;52.220;20.978;2023-07-31T08:05:23;4.37;;;3.90;;
17570;SDS011;8903;52.220;20.978;2023-07-31T08:07:53;8.33;;;4.40;;
17570;SDS011;8903;52.220;20.978;2023-07-31T08:10:26;5.50;;;3.60;;
17570;SDS011;8903;52.220;20.978;2023-07-31T08:12:54;3.50;;;3.20;;
17570;SDS011;8903;52.220;20.978;2023-07-31T08:15:21;5.07;;;3.70;;
17570;SDS011;8903;52.220;20.978;2023-07-31T08:17:50;4.33;;;3.93;;
17570;SDS011;8903;52.220;20.978;2023-07-31T08:20:17;5.37;;;4.37;;
17570;SDS011;8903;52.220;20.978;2023-07-31T08:22:44;4.63;;;3.80;;
17570;SDS011;8903;52.220;20.978;2023-07-31T08:25:11;6.83;;;4.30;;
17570;SDS011;8903;52.220;20.978;2023-07-31T08:27:42;3.40;;;3.10;;
17570;SDS011;8903;52.220;20.978;2023-07-31T08:30:11;4.33;;;3.57;;
17570;SDS011;8903;52.220;20.978;2023-07-31T08:32:40;3.90;;;2.97;;
17570;SDS011;8903;52.220;20.978;2023-07-31T08:35:08;5.57;;;3.17;;
17570;SDS011;8903;52.220;20.978;2023-07-31T08:37:37;4.93;;;3.07;;
17570;SDS011;8903;52.220;20.978;2023-07-31T08:40:07;7.03;;;3.13;;
17570;SDS011;8903;52.220;20.978;2023-07-31T08:42:42;3.80;;;3.23;;
17570;SDS011;8903;52.220;20.978;2023-07-31T08:45:12;6.37;;;3.33;;
17570;SDS011;8903;52.220;20.978;2023-07-31T08:47:44;7.53;;;3.33;;
17570;SDS011;8903;52.220;20.978;2023-07-31T08:50:12;6.97;;;3.43;;
17570;SDS011;8903;52.220;20.978;2023-07-31T08:52:40;4.20;;;3.80;;
17570;SDS011;8903;52.220;20.978;2023-07-31T08:55:09;3.40;;;3.10;;
17570;SDS011;8903;52.220;20.978;2023-07-31T08:57:37;6.63;;;3.53;;
17570;SDS011;8903;52.220;20.978;2023-07-31T09:00:08;4.90;;;3.10;;
17570;SDS011;8903;52.220;20.978;2023-07-31T09:02:38;3.93;;;2.70;;
17570;SDS011;8903;52.220;20.978;2023-07-31T09:05:23;6.43;;;3.00;;
17570;SDS011;8903;52.220;20.978;2023-07-31T09:08:09;5.43;;;3.40;;
17570;SDS011;8903;52.220;20.978;2023-07-31T09:10:39;4.00;;;3.47;;
17570;SDS011;8903;52.220;20.978;2023-07-31T09:13:10;13.20;;;3.20;;
17570;SDS011;8903;52.220;20.978;2023-07-31T09:15:37;6.27;;;2.70;;
17570;SDS011;8903;52.220;20.978;2023-07-31T09:18:06;8.07;;;2.90;;
17570;SDS011;8903;52.220;20.978;2023-07-31T09:20:35;6.20;;;2.80;;
17570;SDS011;8903;52.220;20.978;2023-07-31T09:23:07;7.73;;;2.90;;
17570;SDS011;8903;52.220;20.978;2023-07-31T09:25:37;6.13;;;3.40;;
17570;SDS011;8903;52.220;20.978;2023-07-31T09:28:05;4.80;;;2.87;;
17570;SDS011;8903;52.220;20.978;2023-07-31T09:30:43;7.47;;;2.70;;
17570;SDS011;8903;52.220;20.978;2023-07-31T09:33:12;6.30;;;3.10;;
17570;SDS011;8903;52.220;20.978;2023-07-31T09:35:41;4.23;;;2.70;;
17570;SDS011;8903;52.220;20.978;2023-07-31T09:38:09;4.83;;;2.80;;
17570;SDS011;8903;52.220;20.978;2023-07-31T09:40:38;7.30;;;3.07;;
17570;SDS011;8903;52.220;20.978;2023-07-31T09:43:06;6.63;;;3.47;;
17570;SDS011;8903;52.220;20.978;2023-07-31T09:45:35;5.53;;;2.70;;
17570;SDS011;8903;52.220;20.978;2023-07-31T09:48:06;5.33;;;2.97;;
17570;SDS011;8903;52.220;20.978;2023-07-31T09:50:38;4.77;;;2.50;;
17570;SDS011;8903;52.220;20.978;2023-07-31T09:53:08;3.20;;;1.70;;
17570;SDS011;8903;52.220;20.978;2023-07-31T09:55:36;6.37;;;2.40;;
17570;SDS011;8903;52.220;20.978;2023-07-31T09:58:04;3.10;;;2.43;;
17570;SDS011;8903;52.220;20.978;2023-07-31T10:00:32;6.53;;;3.07;;
17570;SDS011;8903;52.220;20.978;2023-07-31T10:03:01;3.23;;;2.00;;
17570;SDS011;8903;52.220;20.978;2023-07-31T10:05:31;5.67;;;2.90;;
17570;SDS011;8903;52.220;20.978;2023-07-31T10:08:03;5.50;;;2.33;;
17570;SDS011;8903;52.220;20.978;2023-07-31T10:10:32;2.43;;;2.23;;
17570;SDS011;8903;52.220;20.978;2023-07-31T10:13:02;4.73;;;2.70;;
17570;SDS011;8903;52.220;20.978;2023-07-31T10:15:30;6.33;;;2.13;;
17570;SDS011;8903;52.220;20.978;2023-07-31T10:17:58;3.53;;;2.63;;
17570;SDS011;8903;52.220;20.978;2023-07-31T10:20:25;3.90;;;1.70;;
17570;SDS011;8903;52.220;20.978;2023-07-31T10:22:53;2.20;;;1.60;;
17570;SDS011;8903;52.220;20.978;2023-07-31T10:25:24;2.27;;;1.80;;
17570;SDS011;8903;52.220;20.978;2023-07-31T10:27:53;7.33;;;1.87;;
17570;SDS011;8903;52.220;20.978;2023-07-31T10:30:21;4.40;;;1.70;;
17570;SDS011;8903;52.220;20.978;2023-07-31T10:32:54;4.97;;;2.87;;
17570;SDS011;8903;52.220;20.978;2023-07-31T10:35:23;3.83;;;1.27;;
17570;SDS011;8903;52.220;20.978;2023-07-31T10:37:50;3.13;;;1.20;;
17570;SDS011;8903;52.220;20.978;2023-07-31T10:40:19;2.70;;;1.27;;
17570;SDS011;8903;52.220;20.978;2023-07-31T10:42:52;2.40;;;2.00;;
17570;SDS011;8903;52.220;20.978;2023-07-31T10:45:24;3.90;;;2.13;;
17570;SDS011;8903;52.220;20.978;2023-07-31T10:47:57;4.80;;;1.77;;
17570;SDS011;8903;52.220;20.978;2023-07-31T10:50:26;5.20;;;1.57;;
17570;SDS011;8903;52.220;20.978;2023-07-31T10:52:53;6.83;;;2.27;;
17570;SDS011;8903;52.220;20.978;2023-07-31T10:55:26;2.83;;;1.90;;
17570;SDS011;8903;52.220;20.978;2023-07-31T10:57:55;12.40;;;3.00;;
17570;SDS011;8903;52.220;20.978;2023-07-31T11:00:31;4.20;;;1.70;;
17570;SDS011;8903;52.220;20.978;2023-07-31T11:02:59;3.57;;;1.67;;
17570;SDS011;8903;52.220;20.978;2023-07-31T11:05:40;3.43;;;1.80;;
17570;SDS011;8903;52.220;20.978;2023-07-31T11:08:19;3.17;;;1.00;;
17570;SDS011;8903;52.220;20.978;2023-07-31T11:10:50;1.57;;;1.17;;
17570;SDS011;8903;52.220;20.978;2023-07-31T11:13:31;2.60;;;1.30;;
17570;SDS011;8903;52.220;20.978;2023-07-31T11:16:01;2.07;;;1.80;;
17570;SDS011;8903;52.220;20.978;2023-07-31T11:18:29;3.80;;;1.83;;
17570;SDS011;8903;52.220;20.978;2023-07-31T11:20:56;2.83;;;1.23;;
17570;SDS011;8903;52.220;20.978;2023-07-31T11:23:23;1.53;;;1.17;;
17570;SDS011;8903;52.220;20.978;2023-07-31T11:25:52;4.10;;;1.50;;
17570;SDS011;8903;52.220;20.978;2023-07-31T11:28:21;1.97;;;1.10;;
17570;SDS011;8903;52.220;20.978;2023-07-31T11:30:48;1.43;;;0.97;;
17570;SDS011;8903;52.220;20.978;2023-07-31T11:33:15;4.20;;;1.30;;
17570;SDS011;8903;52.220;20.978;2023-07-31T11:35:43;4.40;;;1.30;;
17570;SDS011;8903;52.220;20.978;2023-07-31T11:38:20;1.70;;;1.10;;
17570;SDS011;8903;52.220;20.978;2023-07-31T11:40:49;3.50;;;1.80;;
17570;SDS011;8903;52.220;20.978;2023-07-31T11:43:18;3.67;;;1.10;;
17570;SDS011;8903;52.220;20.978;2023-07-31T11:45:46;4.53;;;1.27;;
17570;SDS011;8903;52.220;20.978;2023-07-31T11:48:18;11.33;;;1.33;;
17570;SDS011;8903;52.220;20.978;2023-07-31T11:50:47;4.70;;;1.40;;
17570;SDS011;8903;52.220;20.978;2023-07-31T11:53:16;6.00;;;1.57;;
17570;SDS011;8903;52.220;20.978;2023-07-31T11:55:45;7.77;;;2.30;;
17570;SDS011;8903;52.220;20.978;2023-07-31T11:58:14;5.13;;;2.20;;
17570;SDS011;8903;52.220;20.978;2023-07-31T12:00:42;9.97;;;3.47;;
17570;SDS011;8903;52.220;20.978;2023-07-31T12:03:10;3.73;;;1.70;;
17570;SDS011;8903;52.220;20.978;2023-07-31T12:05:37;2.70;;;1.60;;
17570;SDS011;8903;52.220;20.978;2023-07-31T12:08:08;7.23;;;1.97;;
17570;SDS011;8903;52.220;20.978;2023-07-31T12:10:37;2.77;;;1.70;;
17570;SDS011;8903;52.220;20.978;2023-07-31T12:13:11;5.30;;;1.60;;
17570;SDS011;8903;52.220;20.978;2023-07-31T12:15:47;7.37;;;2.03;;
17570;SDS011;8903;52.220;20.978;2023-07-31T12:18:15;2.63;;;1.57;;
17570;SDS011;8903;52.220;20.978;2023-07-31T12:20:46;9.60;;;3.10;;
17570;SDS011;8903;52.220;20.978;2023-07-31T12:23:15;2.97;;;1.83;;
17570;SDS011;8903;52.220;20.978;2023-07-31T12:25:44;6.67;;;1.67;;
17570;SDS011;8903;52.220;20.978;2023-07-31T12:28:11;8.57;;;2.27;;
17570;SDS011;8903;52.220;20.978;2023-07-31T12:30:40;2.30;;;1.80;;
17570;SDS011;8903;52.220;20.978;2023-07-31T12:33:12;2.43;;;1.40;;
17570;SDS011;8903;52.220;20.978;2023-07-31T12:35:41;5.30;;;1.77;;
17570;SDS011;8903;52.220;20.978;2023-07-31T12:38:09;6.13;;;2.33;;
17570;SDS011;8903;52.220;20.978;2023-07-31T12:40:38;5.23;;;2.57;;
17570;SDS011;8903;52.220;20.978;2023-07-31T12:43:06;2.20;;;1.83;;
17570;SDS011;8903;52.220;20.978;2023-07-31T12:45:35;2.03;;;1.60;;
17570;SDS011;8903;52.220;20.978;2023-07-31T12:48:13;6.00;;;2.07;;
17570;SDS011;8903;52.220;20.978;2023-07-31T12:50:40;2.07;;;1.80;;
17570;SDS011;8903;52.220;20.978;2023-07-31T12:53:09;5.97;;;2.07;;
17570;SDS011;8903;52.220;20.978;2023-07-31T12:55:36;5.83;;;2.17;;
17570;SDS011;8903;52.220;20.978;2023-07-31T12:58:03;1.80;;;1.43;;
17570;SDS011;8903;52.220;20.978;2023-07-31T13:00:36;10.60;;;2.07;;
17570;SDS011;8903;52.220;20.978;2023-07-31T13:03:08;3.53;;;1.70;;
17570;SDS011;8903;52.220;20.978;2023-07-31T13:05:42;4.87;;;2.10;;
17570;SDS011;8903;52.220;20.978;2023-07-31T13:08:09;2.43;;;1.47;;
17570;SDS011;8903;52.220;20.978;2023-07-31T13:10:37;3.27;;;1.30;;
17570;SDS011;8903;52.220;20.978;2023-07-31T13:13:04;4.60;;;1.97;;
17570;SDS011;8903;52.220;20.978;2023-07-31T13:15:31;3.63;;;1.30;;
17570;SDS011;8903;52.220;20.978;2023-07-31T13:17:58;4.70;;;1.57;;
17570;SDS011;8903;52.220;20.978;2023-07-31T13:20:27;2.27;;;1.53;;
17570;SDS011;8903;52.220;20.978;2023-07-31T13:22:54;4.30;;;1.60;;
17570;SDS011;8903;52.220;20.978;2023-07-31T13:25:21;2.67;;;1.70;;
17570;SDS011;8903;52.220;20.978;2023-07-31T13:27:48;4.97;;;2.00;;
17570;SDS011;8903;52.220;20.978;2023-07-31T13:30:15;5.00;;;1.57;;
17570;SDS011;8903;52.220;20.978;2023-07-31T13:32:42;3.17;;;1.53;;
17570;SDS011;8903;52.220;20.978;2023-07-31T13:35:09;7.80;;;1.70;;
17570;SDS011;8903;52.220;20.978;2023-07-31T13:37:38;4.67;;;2.13;;
17570;SDS011;8903;52.220;20.978;2023-07-31T13:40:06;3.13;;;1.17;;
17570;SDS011;8903;52.220;20.978;2023-07-31T13:42:33;7.80;;;2.00;;
17570;SDS011;8903;52.220;20.978;2023-07-31T13:45:00;2.13;;;1.57;;
17570;SDS011;8903;52.220;20.978;2023-07-31T13:47:27;4.40;;;2.17;;
17570;SDS011;8903;52.220;20.978;2023-07-31T13:49:54;2.93;;;1.30;;
17570;SDS011;8903;52.220;20.978;2023-07-31T13:52:23;3.93;;;1.10;;
17570;SDS011;8903;52.220;20.978;2023-07-31T13:54:52;3.23;;;1.50;;
17570;SDS011;8903;52.220;20.978;2023-07-31T13:57:18;5.67;;;1.53;;
17570;SDS011;8903;52.220;20.978;2023-07-31T13:59:45;4.17;;;1.90;;
17570;SDS011;8903;52.220;20.978;2023-07-31T14:02:14;3.60;;;1.90;;
17570;SDS011;8903;52.220;20.978;2023-07-31T14:04:41;2.20;;;1.40;;
17570;SDS011;8903;52.220;20.978;2023-07-31T14:07:08;4.80;;;1.50;;
17570;SDS011;8903;52.220;20.978;2023-07-31T14:09:36;3.00;;;1.50;;
17570;SDS011;8903;52.220;20.978;2023-07-31T14:12:08;3.73;;;2.07;;
17570;SDS011;8903;52.220;20.978;2023-07-31T14:14:35;3.23;;;2.10;;
17570;SDS011;8903;52.220;20.978;2023-07-31T14:17:02;4.60;;;2.00;;
17570;SDS011;8903;52.220;20.978;2023-07-31T14:19:30;7.17;;;2.83;;
17570;SDS011;8903;52.220;20.978;2023-07-31T14:21:58;5.17;;;2.30;;
17570;SDS011;8903;52.220;20.978;2023-07-31T14:24:31;4.33;;;2.60;;
17570;SDS011;8903;52.220;20.978;2023-07-31T14:26:59;7.20;;;2.60;;
17570;SDS011;8903;52.220;20.978;2023-07-31T14:29:28;6.17;;;2.90;;
17570;SDS011;8903;52.220;20.978;2023-07-31T14:31:55;3.80;;;2.07;;
17570;SDS011;8903;52.220;20.978;2023-07-31T14:34:22;5.50;;;3.30;;
17570;SDS011;8903;52.220;20.978;2023-07-31T14:36:49;5.10;;;1.90;;
17570;SDS011;8903;52.220;20.978;2023-07-31T14:39:19;9.57;;;2.27;;
17570;SDS011;8903;52.220;20.978;2023-07-31T14:41:47;3.70;;;2.07;;
17570;SDS011;8903;52.220;20.978;2023-07-31T14:44:14;6.97;;;1.97;;
17570;SDS011;8903;52.220;20.978;2023-07-31T14:46:43;4.57;;;2.33;;
17570;SDS011;8903;52.220;20.978;2023-07-31T14:49:10;11.67;;;2.10;;
17570;SDS011;8903;52.220;20.978;2023-07-31T14:51:39;3.20;;;1.93;;
17570;SDS011;8903;52.220;20.978;2023-07-31T14:54:06;4.23;;;1.93;;
17570;SDS011;8903;52.220;20.978;2023-07-31T14:56:33;3.37;;;1.67;;
17570;SDS011;8903;52.220;20.978;2023-07-31T14:59:00;6.30;;;1.70;;
17570;SDS011;8903;52.220;20.978;2023-07-31T15:01:27;3.23;;;2.10;;